sensor_id;sensor_type;location;lat;lon;timestamp;P1;durP1;ratioP1;P2;durP2;ratioP2
12884;SDS011;6510;51.362;7.370;2023-02-28T00:01:10;5.00;;;2.80;;
12884;SDS011;6510;51.362;7.370;2023-02-28T00:03:39;7.00;;;3.27;;
12884;SDS011;6510;51.362;7.370;2023-02-28T00:06:05;4.20;;;3.00;;
12884;SDS011;6510;51.362;7.370;2023-02-28T00:08:33;5.27;;;3.20;;
12884;SDS011;6510;51.362;7.370;2023-02-28T00:11:03;3.37;;;3.07;;
12884;SDS011;6510;51.362;7.370;2023-02-28T00:13:30;3.90;;;3.10;;
12884;SDS011;6510;51.362;7.370;2023-02-28T00:16:00;4.10;;;3.17;;
12884;SDS011;6510;51.362;7.370;2023-02-28T00:18:27;4.70;;;3.60;;
12884;SDS011;6510;51.362;7.370;2023-02-28T00:20:53;6.87;;;4.13;;
12884;SDS011;6510;51.362;7.370;2023-02-28T00:23:18;6.73;;;3.73;;
12884;SDS011;6510;51.362;7.370;2023-02-28T00:25:44;5.03;;;3.53;;
12884;SDS011;6510;51.362;7.370;2023-02-28T00:28:10;4.30;;;3.27;;
12884;SDS011;6510;51.362;7.370;2023-02-28T00:30:35;6.07;;;3.70;;
12884;SDS011;6510;51.362;7.370;2023-02-28T00:33:01;4.33;;;3.23;;
12884;SDS011;6510;51.362;7.370;2023-02-28T00:35:26;4.47;;;3.40;;
12884;SDS011;6510;51.362;7.370;2023-02-28T00:37:52;6.23;;;3.80;;
12884;SDS011;6510;51.362;7.370;2023-02-28T00:40:20;5.20;;;3.70;;
12884;SDS011;6510;51.362;7.370;2023-02-28T00:42:46;5.30;;;3.60;;
12884;SDS011;6510;51.362;7.370;2023-02-28T00:45:11;4.03;;;3.20;;
12884;SDS011;6510;51.362;7.370;2023-02-28T00:47:37;5.57;;;3.43;;
12884;SDS011;6510;51.362;7.370;2023-02-28T00:50:03;8.00;;;3.60;;
12884;SDS011;6510;51.362;7.370;2023-02-28T00:52:29;4.93;;;3.50;;
12884;SDS011;6510;51.362;7.370;2023-02-28T00:54:55;7.20;;;3.70;;
12884;SDS011;6510;51.362;7.370;2023-02-28T00:57:20;4.97;;;3.50;;
12884;SDS011;6510;51.362;7.370;2023-02-28T00:59:46;5.47;;;3.87;;
12884;SDS011;6510;51.362;7.370;2023-02-28T01:02:12;7.23;;;4.10;;
12884;SDS011;6510;51.362;7.370;2023-02-28T01:04:38;6.90;;;3.97;;
12884;SDS011;6510;51.362;7.370;2023-02-28T01:07:03;6.43;;;3.73;;
12884;SDS011;6510;51.362;7.370;2023-02-28T01:09:29;6.50;;;3.90;;
12884;SDS011;6510;51.362;7.370;2023-02-28T01:11:55;5.70;;;3.83;;
12884;SDS011;6510;51.362;7.370;2023-02-28T01:14:21;6.90;;;4.13;;
12884;SDS011;6510;51.362;7.370;2023-02-28T01:16:47;4.97;;;3.87;;
12884;SDS011;6510;51.362;7.370;2023-02-28T01:19:12;9.07;;;4.00;;
12884;SDS011;6510;51.362;7.370;2023-02-28T01:21:38;5.77;;;3.90;;
12884;SDS011;6510;51.362;7.370;2023-02-28T01:24:04;6.83;;;4.13;;
12884;SDS011;6510;51.362;7.370;2023-02-28T01:26:36;4.40;;;3.83;;
12884;SDS011;6510;51.362;7.370;2023-02-28T01:29:02;5.30;;;3.63;;
12884;SDS011;6510;51.362;7.370;2023-02-28T01:31:28;5.80;;;3.73;;
12884;SDS011;6510;51.362;7.370;2023-02-28T01:33:53;5.67;;;4.13;;
12884;SDS011;6510;51.362;7.370;2023-02-28T01:36:26;7.17;;;4.40;;
12884;SDS011;6510;51.362;7.370;2023-02-28T01:38:52;6.77;;;4.50;;
12884;SDS011;6510;51.362;7.370;2023-02-28T01:41:22;7.07;;;4.33;;
12884;SDS011;6510;51.362;7.370;2023-02-28T01:46:14;6.00;;;3.83;;
12884;SDS011;6510;51.362;7.370;2023-02-28T01:49:15;6.77;;;4.10;;
12884;SDS011;6510;51.362;7.370;2023-02-28T01:51:34;9.80;;;4.17;;
12884;SDS011;6510;51.362;7.370;2023-02-28T01:54:12;7.37;;;4.13;;
12884;SDS011;6510;51.362;7.370;2023-02-28T01:56:43;7.70;;;4.57;;
12884;SDS011;6510;51.362;7.370;2023-02-28T01:59:13;6.00;;;4.07;;
12884;SDS011;6510;51.362;7.370;2023-02-28T02:01:44;6.00;;;4.27;;
12884;SDS011;6510;51.362;7.370;2023-02-28T02:04:10;5.23;;;3.87;;
12884;SDS011;6510;51.362;7.370;2023-02-28T02:06:37;5.43;;;4.10;;
12884;SDS011;6510;51.362;7.370;2023-02-28T02:09:05;6.07;;;4.50;;
12884;SDS011;6510;51.362;7.370;2023-02-28T02:11:31;8.57;;;4.57;;
12884;SDS011;6510;51.362;7.370;2023-02-28T02:27:33;7.27;;;4.70;;
12884;SDS011;6510;51.362;7.370;2023-02-28T02:36:22;8.27;;;4.90;;
12884;SDS011;6510;51.362;7.370;2023-02-28T02:38:52;8.27;;;4.67;;
12884;SDS011;6510;51.362;7.370;2023-02-28T02:41:28;4.97;;;4.47;;
12884;SDS011;6510;51.362;7.370;2023-02-28T02:44:02;7.57;;;5.30;;
12884;SDS011;6510;51.362;7.370;2023-02-28T02:46:43;8.10;;;4.70;;
12884;SDS011;6510;51.362;7.370;2023-02-28T02:49:12;8.97;;;4.23;;
12884;SDS011;6510;51.362;7.370;2023-02-28T02:51:44;8.73;;;4.20;;
12884;SDS011;6510;51.362;7.370;2023-02-28T02:57:22;4.30;;;3.27;;
12884;SDS011;6510;51.362;7.370;2023-02-28T02:59:52;8.07;;;3.50;;
12884;SDS011;6510;51.362;7.370;2023-02-28T03:02:20;5.83;;;3.20;;
12884;SDS011;6510;51.362;7.370;2023-02-28T03:04:50;4.30;;;3.43;;
12884;SDS011;6510;51.362;7.370;2023-02-28T03:07:18;6.17;;;3.60;;
12884;SDS011;6510;51.362;7.370;2023-02-28T03:09:51;6.40;;;3.10;;
12884;SDS011;6510;51.362;7.370;2023-02-28T03:12:17;5.13;;;3.23;;
12884;SDS011;6510;51.362;7.370;2023-02-28T03:14:55;4.90;;;3.63;;
12884;SDS011;6510;51.362;7.370;2023-02-28T03:18:10;6.70;;;3.40;;
12884;SDS011;6510;51.362;7.370;2023-02-28T03:23:12;4.63;;;2.87;;
12884;SDS011;6510;51.362;7.370;2023-02-28T03:28:19;6.60;;;3.73;;
12884;SDS011;6510;51.362;7.370;2023-02-28T03:33:39;5.50;;;3.73;;
12884;SDS011;6510;51.362;7.370;2023-02-28T03:36:20;5.30;;;3.90;;
12884;SDS011;6510;51.362;7.370;2023-02-28T03:38:51;5.03;;;3.30;;
12884;SDS011;6510;51.362;7.370;2023-02-28T03:44:23;5.90;;;3.07;;
12884;SDS011;6510;51.362;7.370;2023-02-28T03:46:54;5.70;;;3.47;;
12884;SDS011;6510;51.362;7.370;2023-02-28T03:49:30;5.60;;;3.10;;
12884;SDS011;6510;51.362;7.370;2023-02-28T03:51:59;5.03;;;3.83;;
12884;SDS011;6510;51.362;7.370;2023-02-28T03:54:29;5.50;;;3.20;;
12884;SDS011;6510;51.362;7.370;2023-02-28T03:57:05;4.83;;;3.57;;
12884;SDS011;6510;51.362;7.370;2023-02-28T03:59:42;4.90;;;2.73;;
12884;SDS011;6510;51.362;7.370;2023-02-28T04:02:12;5.53;;;3.53;;
12884;SDS011;6510;51.362;7.370;2023-02-28T04:04:38;6.63;;;3.73;;
12884;SDS011;6510;51.362;7.370;2023-02-28T04:07:09;6.90;;;3.50;;
12884;SDS011;6510;51.362;7.370;2023-02-28T04:09:36;4.87;;;3.83;;
12884;SDS011;6510;51.362;7.370;2023-02-28T04:12:03;6.90;;;3.70;;
12884;SDS011;6510;51.362;7.370;2023-02-28T04:14:29;5.10;;;3.60;;
12884;SDS011;6510;51.362;7.370;2023-02-28T04:16:54;7.17;;;3.93;;
12884;SDS011;6510;51.362;7.370;2023-02-28T04:19:20;5.00;;;3.70;;
12884;SDS011;6510;51.362;7.370;2023-02-28T04:21:47;3.40;;;3.10;;
12884;SDS011;6510;51.362;7.370;2023-02-28T04:24:15;4.63;;;3.03;;
12884;SDS011;6510;51.362;7.370;2023-02-28T04:26:46;4.80;;;3.20;;
12884;SDS011;6510;51.362;7.370;2023-02-28T04:29:14;3.73;;;3.20;;
12884;SDS011;6510;51.362;7.370;2023-02-28T04:31:44;3.57;;;3.10;;
12884;SDS011;6510;51.362;7.370;2023-02-28T04:34:10;4.97;;;3.10;;
12884;SDS011;6510;51.362;7.370;2023-02-28T04:36:35;4.70;;;3.10;;
12884;SDS011;6510;51.362;7.370;2023-02-28T04:39:01;4.33;;;3.40;;
12884;SDS011;6510;51.362;7.370;2023-02-28T04:41:27;4.77;;;3.43;;
12884;SDS011;6510;51.362;7.370;2023-02-28T04:43:52;4.73;;;3.90;;
12884;SDS011;6510;51.362;7.370;2023-02-28T04:46:18;3.87;;;3.30;;
12884;SDS011;6510;51.362;7.370;2023-02-28T04:48:44;3.77;;;2.90;;
12884;SDS011;6510;51.362;7.370;2023-02-28T04:51:12;5.03;;;3.37;;
12884;SDS011;6510;51.362;7.370;2023-02-28T04:53:39;3.87;;;3.37;;
12884;SDS011;6510;51.362;7.370;2023-02-28T04:56:06;5.80;;;3.50;;
12884;SDS011;6510;51.362;7.370;2023-02-28T04:58:33;5.50;;;3.57;;
12884;SDS011;6510;51.362;7.370;2023-02-28T05:01:16;5.77;;;3.33;;
12884;SDS011;6510;51.362;7.370;2023-02-28T05:03:42;7.30;;;3.67;;
12884;SDS011;6510;51.362;7.370;2023-02-28T05:06:08;4.30;;;3.90;;
12884;SDS011;6510;51.362;7.370;2023-02-28T05:08:35;5.53;;;3.70;;
12884;SDS011;6510;51.362;7.370;2023-02-28T05:11:01;5.60;;;3.50;;
12884;SDS011;6510;51.362;7.370;2023-02-28T05:13:27;4.20;;;3.63;;
12884;SDS011;6510;51.362;7.370;2023-02-28T05:15:53;6.27;;;3.33;;
12884;SDS011;6510;51.362;7.370;2023-02-28T05:18:20;5.73;;;4.10;;
12884;SDS011;6510;51.362;7.370;2023-02-28T05:20:45;6.07;;;3.70;;
12884;SDS011;6510;51.362;7.370;2023-02-28T05:23:12;4.87;;;3.47;;
12884;SDS011;6510;51.362;7.370;2023-02-28T05:25:39;5.00;;;3.90;;
12884;SDS011;6510;51.362;7.370;2023-02-28T05:28:05;5.40;;;3.23;;
12884;SDS011;6510;51.362;7.370;2023-02-28T05:30:31;5.30;;;3.50;;
12884;SDS011;6510;51.362;7.370;2023-02-28T05:32:57;4.20;;;3.70;;
12884;SDS011;6510;51.362;7.370;2023-02-28T05:35:24;6.70;;;3.43;;
12884;SDS011;6510;51.362;7.370;2023-02-28T05:37:50;3.83;;;3.27;;
12884;SDS011;6510;51.362;7.370;2023-02-28T05:40:16;6.63;;;3.30;;
12884;SDS011;6510;51.362;7.370;2023-02-28T05:42:42;3.97;;;3.33;;
12884;SDS011;6510;51.362;7.370;2023-02-28T05:45:08;3.87;;;3.10;;
12884;SDS011;6510;51.362;7.370;2023-02-28T05:47:34;3.77;;;2.83;;
12884;SDS011;6510;51.362;7.370;2023-02-28T05:50:00;4.37;;;3.13;;
12884;SDS011;6510;51.362;7.370;2023-02-28T05:52:27;4.83;;;3.07;;
12884;SDS011;6510;51.362;7.370;2023-02-28T05:54:55;4.43;;;3.40;;
12884;SDS011;6510;51.362;7.370;2023-02-28T05:57:21;3.70;;;3.20;;
12884;SDS011;6510;51.362;7.370;2023-02-28T05:59:47;5.23;;;3.40;;
12884;SDS011;6510;51.362;7.370;2023-02-28T06:02:13;3.77;;;3.20;;
12884;SDS011;6510;51.362;7.370;2023-02-28T06:04:40;3.93;;;3.00;;
12884;SDS011;6510;51.362;7.370;2023-02-28T06:07:07;5.50;;;3.30;;
12884;SDS011;6510;51.362;7.370;2023-02-28T06:09:33;4.47;;;3.00;;
12884;SDS011;6510;51.362;7.370;2023-02-28T06:12:00;4.47;;;3.30;;
12884;SDS011;6510;51.362;7.370;2023-02-28T06:14:28;4.53;;;3.43;;
12884;SDS011;6510;51.362;7.370;2023-02-28T06:16:56;4.27;;;3.07;;
12884;SDS011;6510;51.362;7.370;2023-02-28T06:19:22;4.77;;;3.00;;
12884;SDS011;6510;51.362;7.370;2023-02-28T06:21:50;3.87;;;3.10;;
12884;SDS011;6510;51.362;7.370;2023-02-28T06:24:18;4.77;;;3.30;;
12884;SDS011;6510;51.362;7.370;2023-02-28T06:26:44;5.30;;;3.20;;
12884;SDS011;6510;51.362;7.370;2023-02-28T06:29:10;5.00;;;3.07;;
12884;SDS011;6510;51.362;7.370;2023-02-28T06:31:36;4.37;;;3.50;;
12884;SDS011;6510;51.362;7.370;2023-02-28T06:34:03;4.97;;;3.63;;
12884;SDS011;6510;51.362;7.370;2023-02-28T06:36:29;5.63;;;3.30;;
12884;SDS011;6510;51.362;7.370;2023-02-28T06:38:55;5.47;;;3.30;;
12884;SDS011;6510;51.362;7.370;2023-02-28T06:41:24;3.87;;;3.20;;
12884;SDS011;6510;51.362;7.370;2023-02-28T06:43:51;4.73;;;3.07;;
12884;SDS011;6510;51.362;7.370;2023-02-28T06:46:17;4.60;;;2.87;;
12884;SDS011;6510;51.362;7.370;2023-02-28T06:48:43;3.03;;;2.67;;
12884;SDS011;6510;51.362;7.370;2023-02-28T06:51:11;3.93;;;2.97;;
12884;SDS011;6510;51.362;7.370;2023-02-28T06:53:45;5.97;;;3.40;;
12884;SDS011;6510;51.362;7.370;2023-02-28T06:56:11;5.30;;;2.97;;
12884;SDS011;6510;51.362;7.370;2023-02-28T06:58:38;6.47;;;3.40;;
12884;SDS011;6510;51.362;7.370;2023-02-28T07:01:05;4.00;;;3.40;;
12884;SDS011;6510;51.362;7.370;2023-02-28T07:03:32;4.93;;;2.97;;
12884;SDS011;6510;51.362;7.370;2023-02-28T07:05:58;2.97;;;2.67;;
12884;SDS011;6510;51.362;7.370;2023-02-28T07:08:24;8.77;;;3.30;;
12884;SDS011;6510;51.362;7.370;2023-02-28T07:10:56;5.10;;;2.77;;
12884;SDS011;6510;51.362;7.370;2023-02-28T07:13:22;4.67;;;2.63;;
12884;SDS011;6510;51.362;7.370;2023-02-28T07:15:58;4.37;;;2.40;;
12884;SDS011;6510;51.362;7.370;2023-02-28T07:18:29;4.27;;;2.67;;
12884;SDS011;6510;51.362;7.370;2023-02-28T07:20:54;2.50;;;2.30;;
12884;SDS011;6510;51.362;7.370;2023-02-28T07:23:20;3.17;;;2.23;;
12884;SDS011;6510;51.362;7.370;2023-02-28T07:25:47;2.50;;;2.30;;
12884;SDS011;6510;51.362;7.370;2023-02-28T07:28:13;3.70;;;2.43;;
12884;SDS011;6510;51.362;7.370;2023-02-28T07:30:39;4.37;;;2.23;;
12884;SDS011;6510;51.362;7.370;2023-02-28T07:33:05;2.20;;;2.00;;
12884;SDS011;6510;51.362;7.370;2023-02-28T07:35:31;3.13;;;2.00;;
12884;SDS011;6510;51.362;7.370;2023-02-28T07:37:58;2.97;;;2.20;;
12884;SDS011;6510;51.362;7.370;2023-02-28T07:40:24;5.93;;;2.30;;
12884;SDS011;6510;51.362;7.370;2023-02-28T07:42:49;2.03;;;1.90;;
12884;SDS011;6510;51.362;7.370;2023-02-28T07:45:15;3.30;;;2.10;;
12884;SDS011;6510;51.362;7.370;2023-02-28T07:47:42;2.47;;;2.27;;
12884;SDS011;6510;51.362;7.370;2023-02-28T07:50:10;3.53;;;2.30;;
12884;SDS011;6510;51.362;7.370;2023-02-28T07:52:38;2.30;;;1.93;;
12884;SDS011;6510;51.362;7.370;2023-02-28T07:55:04;5.30;;;2.00;;
12884;SDS011;6510;51.362;7.370;2023-02-28T07:57:31;3.07;;;2.20;;
12884;SDS011;6510;51.362;7.370;2023-02-28T07:59:57;2.30;;;2.10;;
12884;SDS011;6510;51.362;7.370;2023-02-28T08:02:22;2.40;;;2.10;;
12884;SDS011;6510;51.362;7.370;2023-02-28T08:04:48;3.03;;;2.50;;
12884;SDS011;6510;51.362;7.370;2023-02-28T08:07:14;3.80;;;2.20;;
12884;SDS011;6510;51.362;7.370;2023-02-28T08:09:40;2.80;;;2.27;;
12884;SDS011;6510;51.362;7.370;2023-02-28T08:12:07;2.37;;;2.17;;
12884;SDS011;6510;51.362;7.370;2023-02-28T08:14:33;2.20;;;2.00;;
12884;SDS011;6510;51.362;7.370;2023-02-28T08:16:59;2.33;;;1.83;;
12884;SDS011;6510;51.362;7.370;2023-02-28T08:19:25;2.80;;;2.37;;
12884;SDS011;6510;51.362;7.370;2023-02-28T08:21:51;2.70;;;1.93;;
12884;SDS011;6510;51.362;7.370;2023-02-28T08:24:16;2.17;;;1.97;;
12884;SDS011;6510;51.362;7.370;2023-02-28T08:26:42;2.00;;;1.90;;
12884;SDS011;6510;51.362;7.370;2023-02-28T08:29:08;2.73;;;2.00;;
12884;SDS011;6510;51.362;7.370;2023-02-28T08:31:34;2.10;;;1.80;;
12884;SDS011;6510;51.362;7.370;2023-02-28T08:34:04;1.90;;;1.70;;
12884;SDS011;6510;51.362;7.370;2023-02-28T08:36:33;2.90;;;2.00;;
12884;SDS011;6510;51.362;7.370;2023-02-28T08:38:59;2.03;;;1.90;;
12884;SDS011;6510;51.362;7.370;2023-02-28T08:41:24;2.27;;;2.07;;
12884;SDS011;6510;51.362;7.370;2023-02-28T08:43:50;2.73;;;2.30;;
12884;SDS011;6510;51.362;7.370;2023-02-28T08:46:16;2.27;;;2.00;;
12884;SDS011;6510;51.362;7.370;2023-02-28T08:48:42;2.90;;;2.50;;
12884;SDS011;6510;51.362;7.370;2023-02-28T08:51:10;3.97;;;2.30;;
12884;SDS011;6510;51.362;7.370;2023-02-28T08:53:42;2.10;;;1.90;;
12884;SDS011;6510;51.362;7.370;2023-02-28T08:56:09;3.43;;;2.43;;
12884;SDS011;6510;51.362;7.370;2023-02-28T08:58:36;3.23;;;2.13;;
12884;SDS011;6510;51.362;7.370;2023-02-28T09:01:16;5.30;;;2.30;;
12884;SDS011;6510;51.362;7.370;2023-02-28T09:03:46;3.20;;;2.30;;
12884;SDS011;6510;51.362;7.370;2023-02-28T09:06:14;4.03;;;2.47;;
12884;SDS011;6510;51.362;7.370;2023-02-28T09:08:41;3.13;;;2.40;;
12884;SDS011;6510;51.362;7.370;2023-02-28T09:11:07;2.27;;;2.07;;
12884;SDS011;6510;51.362;7.370;2023-02-28T09:13:33;3.77;;;2.23;;
12884;SDS011;6510;51.362;7.370;2023-02-28T09:15:59;2.27;;;1.87;;
12884;SDS011;6510;51.362;7.370;2023-02-28T09:18:26;3.50;;;2.17;;
12884;SDS011;6510;51.362;7.370;2023-02-28T09:20:52;2.40;;;2.10;;
12884;SDS011;6510;51.362;7.370;2023-02-28T09:23:18;3.90;;;2.50;;
12884;SDS011;6510;51.362;7.370;2023-02-28T09:25:48;2.40;;;2.20;;
12884;SDS011;6510;51.362;7.370;2023-02-28T09:28:18;2.77;;;2.17;;
12884;SDS011;6510;51.362;7.370;2023-02-28T09:30:45;4.73;;;3.17;;
12884;SDS011;6510;51.362;7.370;2023-02-28T09:33:14;2.53;;;2.00;;
12884;SDS011;6510;51.362;7.370;2023-02-28T09:35:40;3.77;;;3.17;;
12884;SDS011;6510;51.362;7.370;2023-02-28T09:38:06;2.50;;;2.23;;
12884;SDS011;6510;51.362;7.370;2023-02-28T09:40:39;4.90;;;2.47;;
12884;SDS011;6510;51.362;7.370;2023-02-28T09:43:18;4.17;;;2.37;;
12884;SDS011;6510;51.362;7.370;2023-02-28T09:45:48;3.73;;;2.23;;
12884;SDS011;6510;51.362;7.370;2023-02-28T09:48:25;2.80;;;2.10;;
12884;SDS011;6510;51.362;7.370;2023-02-28T09:51:04;2.50;;;2.07;;
12884;SDS011;6510;51.362;7.370;2023-02-28T09:53:37;2.60;;;2.40;;
12884;SDS011;6510;51.362;7.370;2023-02-28T09:58:41;2.30;;;2.00;;
12884;SDS011;6510;51.362;7.370;2023-02-28T10:07:21;3.00;;;2.13;;
12884;SDS011;6510;51.362;7.370;2023-02-28T10:09:53;2.07;;;1.80;;
12884;SDS011;6510;51.362;7.370;2023-02-28T10:12:22;2.50;;;1.90;;
12884;SDS011;6510;51.362;7.370;2023-02-28T10:14:50;2.20;;;2.00;;
12884;SDS011;6510;51.362;7.370;2023-02-28T10:17:23;3.73;;;2.27;;
12884;SDS011;6510;51.362;7.370;2023-02-28T10:20:05;3.77;;;2.00;;
12884;SDS011;6510;51.362;7.370;2023-02-28T10:22:40;3.50;;;1.70;;
12884;SDS011;6510;51.362;7.370;2023-02-28T10:25:19;2.13;;;1.83;;
12884;SDS011;6510;51.362;7.370;2023-02-28T10:27:46;2.70;;;1.70;;
12884;SDS011;6510;51.362;7.370;2023-02-28T10:30:18;2.10;;;1.77;;
12884;SDS011;6510;51.362;7.370;2023-02-28T10:32:50;3.53;;;1.83;;
12884;SDS011;6510;51.362;7.370;2023-02-28T10:35:24;2.10;;;1.90;;
12884;SDS011;6510;51.362;7.370;2023-02-28T10:37:55;2.13;;;1.90;;
12884;SDS011;6510;51.362;7.370;2023-02-28T10:43:02;3.87;;;1.77;;
12884;SDS011;6510;51.362;7.370;2023-02-28T10:45:34;3.57;;;1.87;;
12884;SDS011;6510;51.362;7.370;2023-02-28T10:48:05;3.30;;;1.83;;
12884;SDS011;6510;51.362;7.370;2023-02-28T10:50:51;2.00;;;1.90;;
12884;SDS011;6510;51.362;7.370;2023-02-28T10:55:58;3.17;;;1.90;;
12884;SDS011;6510;51.362;7.370;2023-02-28T10:58:26;2.07;;;1.90;;
12884;SDS011;6510;51.362;7.370;2023-02-28T11:04:01;1.90;;;1.70;;
12884;SDS011;6510;51.362;7.370;2023-02-28T11:06:31;2.23;;;1.93;;
12884;SDS011;6510;51.362;7.370;2023-02-28T11:09:05;2.10;;;2.00;;
12884;SDS011;6510;51.362;7.370;2023-02-28T11:11:44;2.33;;;1.70;;
12884;SDS011;6510;51.362;7.370;2023-02-28T11:14:24;2.80;;;1.90;;
12884;SDS011;6510;51.362;7.370;2023-02-28T11:16:53;2.37;;;2.00;;
12884;SDS011;6510;51.362;7.370;2023-02-28T11:19:23;1.80;;;1.70;;
12884;SDS011;6510;51.362;7.370;2023-02-28T11:21:53;1.53;;;1.43;;
12884;SDS011;6510;51.362;7.370;2023-02-28T11:26:49;2.43;;;1.80;;
12884;SDS011;6510;51.362;7.370;2023-02-28T11:29:17;3.30;;;2.03;;
12884;SDS011;6510;51.362;7.370;2023-02-28T11:34:36;3.33;;;2.00;;
12884;SDS011;6510;51.362;7.370;2023-02-28T11:37:08;2.37;;;2.07;;
12884;SDS011;6510;51.362;7.370;2023-02-28T11:39:43;2.37;;;1.60;;
12884;SDS011;6510;51.362;7.370;2023-02-28T11:42:23;1.77;;;1.67;;
12884;SDS011;6510;51.362;7.370;2023-02-28T11:54:12;2.60;;;2.20;;
12884;SDS011;6510;51.362;7.370;2023-02-28T11:59:04;1.60;;;1.50;;
12884;SDS011;6510;51.362;7.370;2023-02-28T12:02:03;2.33;;;1.60;;
12884;SDS011;6510;51.362;7.370;2023-02-28T12:05:03;2.43;;;1.80;;
12884;SDS011;6510;51.362;7.370;2023-02-28T12:19:00;2.67;;;2.10;;
12884;SDS011;6510;51.362;7.370;2023-02-28T12:22:06;2.20;;;1.90;;
12884;SDS011;6510;51.362;7.370;2023-02-28T12:27:48;1.70;;;1.60;;
12884;SDS011;6510;51.362;7.370;2023-02-28T12:30:28;1.93;;;1.83;;
12884;SDS011;6510;51.362;7.370;2023-02-28T12:33:07;2.00;;;1.67;;
12884;SDS011;6510;51.362;7.370;2023-02-28T12:35:56;2.00;;;1.90;;
12884;SDS011;6510;51.362;7.370;2023-02-28T12:38:59;1.80;;;1.70;;
12884;SDS011;6510;51.362;7.370;2023-02-28T12:41:36;2.67;;;2.20;;
12884;SDS011;6510;51.362;7.370;2023-02-28T12:44:12;2.23;;;1.80;;
12884;SDS011;6510;51.362;7.370;2023-02-28T12:46:51;3.80;;;2.30;;
12884;SDS011;6510;51.362;7.370;2023-02-28T12:49:26;2.37;;;1.90;;
12884;SDS011;6510;51.362;7.370;2023-02-28T12:51:56;2.00;;;1.90;;
12884;SDS011;6510;51.362;7.370;2023-02-28T12:54:28;2.30;;;1.77;;
12884;SDS011;6510;51.362;7.370;2023-02-28T12:57:23;3.43;;;2.13;;
12884;SDS011;6510;51.362;7.370;2023-02-28T12:59:57;2.10;;;1.90;;
12884;SDS011;6510;51.362;7.370;2023-02-28T13:13:20;2.17;;;1.97;;
12884;SDS011;6510;51.362;7.370;2023-02-28T13:18:42;2.40;;;2.20;;
12884;SDS011;6510;51.362;7.370;2023-02-28T13:21:24;2.30;;;2.10;;
12884;SDS011;6510;51.362;7.370;2023-02-28T13:29:00;2.27;;;2.10;;
12884;SDS011;6510;51.362;7.370;2023-02-28T13:31:29;3.40;;;2.10;;
12884;SDS011;6510;51.362;7.370;2023-02-28T13:36:30;2.13;;;2.03;;
12884;SDS011;6510;51.362;7.370;2023-02-28T13:44:05;2.40;;;2.20;;
12884;SDS011;6510;51.362;7.370;2023-02-28T13:47:18;2.30;;;2.10;;
12884;SDS011;6510;51.362;7.370;2023-02-28T13:52:12;2.77;;;2.43;;
12884;SDS011;6510;51.362;7.370;2023-02-28T13:54:58;3.17;;;2.20;;
12884;SDS011;6510;51.362;7.370;2023-02-28T14:03:32;2.50;;;2.30;;
12884;SDS011;6510;51.362;7.370;2023-02-28T14:06:22;2.40;;;2.20;;
12884;SDS011;6510;51.362;7.370;2023-02-28T14:09:01;2.47;;;2.10;;
12884;SDS011;6510;51.362;7.370;2023-02-28T14:11:37;2.20;;;2.10;;
12884;SDS011;6510;51.362;7.370;2023-02-28T14:14:05;2.20;;;2.00;;
12884;SDS011;6510;51.362;7.370;2023-02-28T14:16:44;3.10;;;2.00;;
12884;SDS011;6510;51.362;7.370;2023-02-28T14:19:16;2.67;;;1.83;;
12884;SDS011;6510;51.362;7.370;2023-02-28T14:24:27;2.83;;;2.00;;
12884;SDS011;6510;51.362;7.370;2023-02-28T14:32:51;2.87;;;2.30;;
12884;SDS011;6510;51.362;7.370;2023-02-28T14:37:50;2.50;;;2.30;;
12884;SDS011;6510;51.362;7.370;2023-02-28T14:40:23;2.57;;;2.37;;
12884;SDS011;6510;51.362;7.370;2023-02-28T14:42:56;2.20;;;2.00;;
12884;SDS011;6510;51.362;7.370;2023-02-28T14:45:24;2.40;;;2.20;;
12884;SDS011;6510;51.362;7.370;2023-02-28T14:47:52;2.80;;;2.30;;
12884;SDS011;6510;51.362;7.370;2023-02-28T14:50:18;3.10;;;2.30;;
12884;SDS011;6510;51.362;7.370;2023-02-28T14:52:50;2.97;;;2.03;;
12884;SDS011;6510;51.362;7.370;2023-02-28T14:55:23;2.50;;;2.30;;
12884;SDS011;6510;51.362;7.370;2023-02-28T14:58:18;3.50;;;1.80;;
12884;SDS011;6510;51.362;7.370;2023-02-28T15:00:51;1.80;;;1.70;;
12884;SDS011;6510;51.362;7.370;2023-02-28T15:03:23;2.40;;;2.20;;
12884;SDS011;6510;51.362;7.370;2023-02-28T15:05:59;5.80;;;2.20;;
12884;SDS011;6510;51.362;7.370;2023-02-28T15:08:46;2.30;;;2.10;;
12884;SDS011;6510;51.362;7.370;2023-02-28T15:11:16;2.60;;;2.40;;
12884;SDS011;6510;51.362;7.370;2023-02-28T15:13:51;5.27;;;3.50;;
12884;SDS011;6510;51.362;7.370;2023-02-28T15:16:21;2.23;;;2.10;;
12884;SDS011;6510;51.362;7.370;2023-02-28T15:18:56;2.90;;;2.70;;
12884;SDS011;6510;51.362;7.370;2023-02-28T15:21:32;16.00;;;8.97;;
12884;SDS011;6510;51.362;7.370;2023-02-28T15:24:07;6.37;;;3.63;;
12884;SDS011;6510;51.362;7.370;2023-02-28T15:26:41;5.70;;;4.27;;
12884;SDS011;6510;51.362;7.370;2023-02-28T15:29:15;2.83;;;2.63;;
12884;SDS011;6510;51.362;7.370;2023-02-28T15:31:45;7.20;;;4.60;;
12884;SDS011;6510;51.362;7.370;2023-02-28T15:34:21;7.10;;;5.87;;
12884;SDS011;6510;51.362;7.370;2023-02-28T15:36:53;9.10;;;5.70;;
12884;SDS011;6510;51.362;7.370;2023-02-28T15:39:23;6.77;;;4.80;;
12884;SDS011;6510;51.362;7.370;2023-02-28T15:42:09;5.53;;;4.27;;
12884;SDS011;6510;51.362;7.370;2023-02-28T15:44:41;5.63;;;4.30;;
12884;SDS011;6510;51.362;7.370;2023-02-28T15:47:14;7.03;;;5.23;;
12884;SDS011;6510;51.362;7.370;2023-02-28T15:52:38;3.77;;;3.37;;
12884;SDS011;6510;51.362;7.370;2023-02-28T15:55:18;3.47;;;3.17;;
12884;SDS011;6510;51.362;7.370;2023-02-28T15:57:46;3.60;;;3.30;;
12884;SDS011;6510;51.362;7.370;2023-02-28T16:00:16;3.70;;;3.30;;
12884;SDS011;6510;51.362;7.370;2023-02-28T16:02:45;3.37;;;2.73;;
12884;SDS011;6510;51.362;7.370;2023-02-28T16:07:38;3.20;;;2.77;;
12884;SDS011;6510;51.362;7.370;2023-02-28T16:10:05;4.07;;;3.10;;
12884;SDS011;6510;51.362;7.370;2023-02-28T16:12:35;3.27;;;2.93;;
12884;SDS011;6510;51.362;7.370;2023-02-28T16:15:06;3.17;;;2.87;;
12884;SDS011;6510;51.362;7.370;2023-02-28T16:17:53;3.00;;;2.80;;
12884;SDS011;6510;51.362;7.370;2023-02-28T16:20:30;3.47;;;3.10;;
12884;SDS011;6510;51.362;7.370;2023-02-28T16:22:56;3.10;;;2.80;;
12884;SDS011;6510;51.362;7.370;2023-02-28T16:25:43;4.03;;;2.83;;
12884;SDS011;6510;51.362;7.370;2023-02-28T16:28:30;3.73;;;2.50;;
12884;SDS011;6510;51.362;7.370;2023-02-28T16:31:03;3.43;;;2.77;;
12884;SDS011;6510;51.362;7.370;2023-02-28T16:33:31;6.40;;;3.60;;
12884;SDS011;6510;51.362;7.370;2023-02-28T16:36:00;7.53;;;3.33;;
12884;SDS011;6510;51.362;7.370;2023-02-28T16:38:26;4.07;;;3.50;;
12884;SDS011;6510;51.362;7.370;2023-02-28T16:40:53;3.00;;;2.70;;
12884;SDS011;6510;51.362;7.370;2023-02-28T16:43:22;3.30;;;3.00;;
12884;SDS011;6510;51.362;7.370;2023-02-28T16:45:54;4.40;;;2.73;;
12884;SDS011;6510;51.362;7.370;2023-02-28T16:48:21;3.30;;;2.90;;
12884;SDS011;6510;51.362;7.370;2023-02-28T16:50:47;3.10;;;2.77;;
12884;SDS011;6510;51.362;7.370;2023-02-28T16:53:12;2.67;;;2.47;;
12884;SDS011;6510;51.362;7.370;2023-02-28T16:55:38;3.60;;;2.97;;
12884;SDS011;6510;51.362;7.370;2023-02-28T16:58:04;4.40;;;3.30;;
12884;SDS011;6510;51.362;7.370;2023-02-28T17:00:30;6.17;;;2.97;;
12884;SDS011;6510;51.362;7.370;2023-02-28T17:02:57;5.17;;;3.00;;
12884;SDS011;6510;51.362;7.370;2023-02-28T17:05:24;4.47;;;3.40;;
12884;SDS011;6510;51.362;7.370;2023-02-28T17:07:53;4.47;;;3.17;;
12884;SDS011;6510;51.362;7.370;2023-02-28T17:10:20;5.60;;;4.10;;
12884;SDS011;6510;51.362;7.370;2023-02-28T17:12:47;5.53;;;3.70;;
12884;SDS011;6510;51.362;7.370;2023-02-28T17:15:14;4.70;;;3.23;;
12884;SDS011;6510;51.362;7.370;2023-02-28T17:17:41;4.80;;;3.50;;
12884;SDS011;6510;51.362;7.370;2023-02-28T17:20:12;4.33;;;3.43;;
12884;SDS011;6510;51.362;7.370;2023-02-28T17:22:42;5.00;;;3.70;;
12884;SDS011;6510;51.362;7.370;2023-02-28T17:25:09;4.60;;;3.40;;
12884;SDS011;6510;51.362;7.370;2023-02-28T17:27:36;3.87;;;3.20;;
12884;SDS011;6510;51.362;7.370;2023-02-28T17:30:04;3.80;;;3.07;;
12884;SDS011;6510;51.362;7.370;2023-02-28T17:32:41;8.23;;;5.30;;
12884;SDS011;6510;51.362;7.370;2023-02-28T17:35:07;7.67;;;4.87;;